createdAt,value
2023-02-09T00:00:21.314Z,19.37
2023-02-09T00:02:50.515Z,21.10
2023-02-09T00:05:18.440Z,22.07
2023-02-09T00:07:46.200Z,22.87
2023-02-09T00:10:14.022Z,21.47
2023-02-09T00:13:01.739Z,22.23
2023-02-09T00:15:29.519Z,17.33
2023-02-09T00:17:58.714Z,17.93
2023-02-09T00:20:26.449Z,19.40
2023-02-09T00:22:54.185Z,16.03
2023-02-09T00:25:21.923Z,18.17
2023-02-09T00:27:52.802Z,19.13
2023-02-09T00:30:21.036Z,21.43
2023-02-09T00:32:48.795Z,20.13
2023-02-09T00:35:18.291Z,21.93
2023-02-09T00:37:46.089Z,22.13
2023-02-09T00:40:14.325Z,21.37
2023-02-09T00:42:42.083Z,21.47
2023-02-09T00:45:10.786Z,18.03
2023-02-09T00:47:38.574Z,22.10
2023-02-09T00:50:10.176Z,23.50
2023-02-09T00:52:39.342Z,19.43
2023-02-09T00:55:07.711Z,23.03
2023-02-09T00:57:36.021Z,21.03
2023-02-09T01:00:04.570Z,20.43
2023-02-09T01:02:32.615Z,21.13
2023-02-09T01:05:00.713Z,21.43
2023-02-09T01:07:28.504Z,17.20
2023-02-09T01:09:57.796Z,21.47
2023-02-09T01:12:25.585Z,19.50
2023-02-09T01:14:55.434Z,18.93
2023-02-09T01:17:23.453Z,21.40
2023-02-09T01:19:52.912Z,22.07
2023-02-09T01:22:20.992Z,22.83
2023-02-09T01:24:50.274Z,21.07
2023-02-09T01:27:19.893Z,24.30
2023-02-09T01:29:47.679Z,20.20
2023-02-09T01:32:15.600Z,20.40
2023-02-09T01:34:45.176Z,19.30
2023-02-09T01:37:12.983Z,20.70
2023-02-09T01:39:41.054Z,18.70
2023-02-09T01:42:14.738Z,19.40
2023-02-09T01:45:15.595Z,20.20
2023-02-09T01:47:47.141Z,21.53
2023-02-09T01:50:15.777Z,19.50
2023-02-09T01:52:45.940Z,20.83
2023-02-09T01:55:18.039Z,20.03
2023-02-09T01:57:50.107Z,21.17
2023-02-09T02:00:20.876Z,24.30
2023-02-09T02:02:53.365Z,21.50
2023-02-09T02:05:22.330Z,26.00
2023-02-09T02:07:57.564Z,21.17
2023-02-09T02:10:26.105Z,26.03
2023-02-09T02:12:54.989Z,24.50
2023-02-09T02:15:28.222Z,24.27
2023-02-09T02:18:11.355Z,20.50
2023-02-09T02:21:19.469Z,23.73
2023-02-09T02:24:03.644Z,20.47
2023-02-09T02:26:53.782Z,21.70
2023-02-09T02:29:52.101Z,20.50
2023-02-09T02:32:47.854Z,21.37
2023-02-09T02:35:24.644Z,22.60
2023-02-09T02:38:02.063Z,22.83
2023-02-09T02:40:42.100Z,22.10
2023-02-09T02:43:21.657Z,21.23
2023-02-09T02:45:53.888Z,18.27
2023-02-09T02:48:33.517Z,19.40
2023-02-09T02:51:05.259Z,21.30
2023-02-09T02:53:36.381Z,20.90
2023-02-09T02:56:09.763Z,24.10
2023-02-09T02:58:41.431Z,21.10
2023-02-09T03:01:11.944Z,21.73
2023-02-09T03:03:44.176Z,22.63
2023-02-09T03:06:12.850Z,22.57
2023-02-09T03:08:48.564Z,20.73
2023-02-09T03:11:17.537Z,22.30
2023-02-09T03:13:59.277Z,20.47
2023-02-09T03:20:35.593Z,20.60
2023-02-09T03:23:05.668Z,19.60
2023-02-09T03:25:38.642Z,21.10
2023-02-09T03:28:09.418Z,17.30
2023-02-09T03:30:42.062Z,21.70
2023-02-09T03:33:21.002Z,24.67
2023-02-09T03:35:53.244Z,19.27
2023-02-09T03:38:21.157Z,19.27
2023-02-09T03:40:48.937Z,19.03
2023-02-09T03:43:16.821Z,24.13
2023-02-09T03:45:44.543Z,21.80
2023-02-09T03:48:12.352Z,20.60
2023-02-09T03:50:40.117Z,20.50
2023-02-09T03:53:09.246Z,23.90
2023-02-09T03:55:37.158Z,19.40
2023-02-09T03:58:05.026Z,22.80
2023-02-09T04:00:32.783Z,20.47
2023-02-09T04:03:00.545Z,24.33
2023-02-09T04:05:28.244Z,23.87
2023-02-09T04:07:55.985Z,21.97
2023-02-09T04:10:28.426Z,22.10
2023-02-09T04:12:56.149Z,23.53
2023-02-09T04:15:23.836Z,24.97
2023-02-09T04:17:51.629Z,23.37
2023-02-09T04:20:19.481Z,20.37
2023-02-09T04:22:47.222Z,21.00
2023-02-09T04:25:15.040Z,23.57
2023-02-09T04:27:44.141Z,23.50
2023-02-09T04:30:13.134Z,23.50
2023-02-09T04:32:40.906Z,21.43
2023-02-09T04:35:09.062Z,22.83
2023-02-09T04:37:36.873Z,19.30
2023-02-09T04:40:07.601Z,23.23
2023-02-09T04:42:35.574Z,20.23
2023-02-09T04:45:04.732Z,20.37
2023-02-09T04:47:32.897Z,23.60
2023-02-09T04:50:00.785Z,24.73
2023-02-09T04:52:28.487Z,20.63
2023-02-09T04:54:56.265Z,21.87
2023-02-09T04:57:41.475Z,19.10
2023-02-09T05:00:12.402Z,20.50
2023-02-09T05:02:40.335Z,18.00
2023-02-09T05:05:08.368Z,20.37
2023-02-09T05:07:36.238Z,19.37
2023-02-09T05:10:04.671Z,18.93
2023-02-09T05:12:34.749Z,21.00
2023-02-09T05:15:02.487Z,21.70
2023-02-09T05:17:33.444Z,21.20
2023-02-09T05:20:01.333Z,24.00
2023-02-09T05:22:29.079Z,19.20
2023-02-09T05:24:56.843Z,22.37
2023-02-09T05:27:24.633Z,21.47
2023-02-09T05:29:52.399Z,22.83
2023-02-09T05:32:20.232Z,19.93
2023-02-09T05:34:51.640Z,21.57
2023-02-09T05:37:21.755Z,19.70
2023-02-09T05:39:50.995Z,25.50
2023-02-09T05:42:18.845Z,23.77
2023-02-09T05:44:48.012Z,20.67
2023-02-09T05:47:19.327Z,24.30
2023-02-09T05:49:47.133Z,25.37
2023-02-09T05:52:17.940Z,24.07
2023-02-09T05:54:47.865Z,24.57
2023-02-09T05:57:15.859Z,21.00
2023-02-09T05:59:43.943Z,17.17
2023-02-09T06:02:12.208Z,23.17
2023-02-09T06:04:40.005Z,21.87
2023-02-09T06:07:08.494Z,21.63
2023-02-09T06:09:38.506Z,25.63
2023-02-09T06:12:06.623Z,22.50
2023-02-09T06:14:34.419Z,23.03
2023-02-09T06:17:02.119Z,24.90
2023-02-09T06:19:30.252Z,22.73
2023-02-09T06:21:58.242Z,24.13
2023-02-09T06:24:26.313Z,22.77
2023-02-09T06:26:56.156Z,24.70
2023-02-09T06:29:24.381Z,25.30
2023-02-09T06:31:52.787Z,21.80
2023-02-09T06:34:20.753Z,22.30
2023-02-09T06:36:48.575Z,21.90
2023-02-09T06:39:16.334Z,24.20
2023-02-09T06:41:44.121Z,24.27
2023-02-09T06:44:13.492Z,25.47
2023-02-09T06:46:41.378Z,24.50
2023-02-09T06:49:09.328Z,23.13
2023-02-09T06:51:37.212Z,31.90
2023-02-09T06:54:05.617Z,23.67
2023-02-09T06:56:35.779Z,28.07
2023-02-09T06:59:03.612Z,24.03
2023-02-09T07:01:32.820Z,30.73
2023-02-09T07:04:00.598Z,26.40
2023-02-09T07:06:28.456Z,24.67
2023-02-09T07:08:56.282Z,26.87
2023-02-09T07:11:24.055Z,23.30
2023-02-09T07:13:51.930Z,29.03
2023-02-09T07:16:20.047Z,30.20
2023-02-09T07:18:49.214Z,24.73
2023-02-09T07:21:19.770Z,32.63
2023-02-09T07:23:48.453Z,25.17
2023-02-09T07:26:18.789Z,26.87
2023-02-09T07:28:46.577Z,26.67
2023-02-09T07:31:16.204Z,24.67
2023-02-09T07:33:44.418Z,28.10
2023-02-09T07:36:15.479Z,22.70
2023-02-09T07:38:43.680Z,26.47
2023-02-09T07:41:16.084Z,25.97
2023-02-09T07:43:44.139Z,31.63
2023-02-09T07:46:15.165Z,27.80
2023-02-09T07:48:43.132Z,28.20
2023-02-09T07:51:15.874Z,33.50
2023-02-09T07:53:43.906Z,28.10
2023-02-09T07:56:11.716Z,28.47
2023-02-09T07:58:39.726Z,28.63
2023-02-09T08:01:09.755Z,27.57
2023-02-09T08:03:38.620Z,32.13
2023-02-09T08:06:19.590Z,28.80
2023-02-09T08:08:50.365Z,28.87
2023-02-09T08:11:24.369Z,32.60
2023-02-09T08:13:54.004Z,31.33
2023-02-09T08:16:26.155Z,29.07
2023-02-09T08:18:58.525Z,30.47
2023-02-09T08:21:28.950Z,34.73
2023-02-09T08:24:01.070Z,31.70
2023-02-09T08:26:28.936Z,31.17
2023-02-09T08:28:58.292Z,28.00
2023-02-09T08:31:26.230Z,31.50
2023-02-09T08:33:54.154Z,27.23
2023-02-09T08:36:22.177Z,30.47
2023-02-09T08:38:50.228Z,25.83
2023-02-09T08:41:20.203Z,28.23
2023-02-09T08:43:51.630Z,24.90
2023-02-09T08:46:20.322Z,30.73
2023-02-09T08:48:48.518Z,28.77
2023-02-09T08:51:17.685Z,27.10
2023-02-09T08:53:52.166Z,33.43
2023-02-09T08:56:23.322Z,29.70
2023-02-09T08:58:51.273Z,43.23
2023-02-09T09:01:19.374Z,30.57
2023-02-09T09:03:47.304Z,33.03
2023-02-09T09:06:15.086Z,34.27
2023-02-09T09:08:43.048Z,31.20
2023-02-09T09:11:13.191Z,35.20
2023-02-09T09:13:45.202Z,28.77
2023-02-09T09:16:16.525Z,38.50
2023-02-09T09:18:45.520Z,27.73
2023-02-09T09:21:13.849Z,28.93
2023-02-09T09:23:41.610Z,29.03
2023-02-09T09:26:09.940Z,27.60
2023-02-09T09:28:38.361Z,28.20
2023-02-09T09:31:10.538Z,29.13
2023-02-09T09:33:38.585Z,33.33
2023-02-09T09:36:07.801Z,30.37
2023-02-09T09:38:35.908Z,31.20
2023-02-09T09:41:17.817Z,33.33
2023-02-09T09:43:45.744Z,28.27
2023-02-09T09:46:20.825Z,23.97
2023-02-09T09:48:51.701Z,30.37
2023-02-09T09:51:25.293Z,30.30
2023-02-09T09:53:56.155Z,30.00
2023-02-09T09:56:26.836Z,27.33
2023-02-09T09:58:54.928Z,30.43
2023-02-09T10:01:28.676Z,29.10
2023-02-09T10:03:59.621Z,28.97
2023-02-09T10:06:34.169Z,27.60
2023-02-09T10:09:05.561Z,28.93
2023-02-09T10:11:39.918Z,30.10
2023-02-09T10:14:10.617Z,33.83
2023-02-09T10:16:40.073Z,28.40
2023-02-09T10:19:23.624Z,28.90
2023-02-09T10:21:51.317Z,30.10
2023-02-09T10:24:24.151Z,28.13
2023-02-09T10:27:08.127Z,32.70
2023-02-09T10:29:36.794Z,30.97
2023-02-09T10:32:14.612Z,31.60
2023-02-09T10:34:46.217Z,27.07
2023-02-09T10:37:23.338Z,30.80
2023-02-09T10:39:59.845Z,29.13
2023-02-09T10:42:31.497Z,31.43
2023-02-09T10:45:06.978Z,32.70
2023-02-09T10:47:36.383Z,28.03
2023-02-09T10:50:17.108Z,29.00
2023-02-09T10:52:56.196Z,33.00
2023-02-09T10:55:28.008Z,30.80
2023-02-09T10:58:06.288Z,27.67
2023-02-09T11:00:39.673Z,29.00
2023-02-09T11:03:18.300Z,29.87
2023-02-09T11:05:48.269Z,28.97
2023-02-09T11:08:22.567Z,28.97
2023-02-09T11:11:01.686Z,30.13
2023-02-09T11:13:32.159Z,27.77
2023-02-09T11:16:20.700Z,31.63
2023-02-09T11:18:57.584Z,27.40
2023-02-09T11:21:37.907Z,25.87
2023-02-09T11:24:13.233Z,25.43
2023-02-09T11:26:48.821Z,22.57
2023-02-09T11:29:25.333Z,24.07
2023-02-09T11:32:20.599Z,24.20
2023-02-09T11:35:09.865Z,25.93
2023-02-09T11:37:45.168Z,24.97
2023-02-09T11:40:37.281Z,26.47
2023-02-09T11:43:16.777Z,24.80
2023-02-09T11:45:46.446Z,24.63
2023-02-09T11:48:18.910Z,27.67
2023-02-09T11:50:57.769Z,27.63
2023-02-09T11:53:32.937Z,24.93
2023-02-09T11:56:03.725Z,24.87
2023-02-09T11:58:42.284Z,28.63
2023-02-09T12:01:20.077Z,25.23
2023-02-09T12:04:06.258Z,26.43
2023-02-09T12:06:39.705Z,29.03
2023-02-09T12:09:17.626Z,27.90
2023-02-09T12:11:55.358Z,26.23
2023-02-09T12:14:39.853Z,27.10
2023-02-09T12:17:14.945Z,21.73
2023-02-09T12:19:45.538Z,23.63
2023-02-09T12:22:44.854Z,19.20
2023-02-09T12:25:31.788Z,24.60
2023-02-09T12:28:16.972Z,23.77
2023-02-09T12:31:05.358Z,26.63
2023-02-09T12:33:35.398Z,26.97
2023-02-09T12:36:06.191Z,24.50
2023-02-09T12:39:07.421Z,27.27
2023-02-09T12:42:12.872Z,22.40
2023-02-09T12:44:55.674Z,26.67
2023-02-09T12:47:58.564Z,23.17
2023-02-09T12:50:47.302Z,23.40
2023-02-09T12:53:49.110Z,22.40
2023-02-09T12:56:35.263Z,27.00
2023-02-09T12:59:18.566Z,29.30
2023-02-09T13:02:23.879Z,25.17
2023-02-09T13:05:05.092Z,25.60
2023-02-09T13:07:44.380Z,26.40
2023-02-09T13:10:24.455Z,25.33
2023-02-09T13:12:57.769Z,29.07
2023-02-09T13:15:29.770Z,26.43
2023-02-09T13:18:10.046Z,25.70
2023-02-09T13:21:03.250Z,27.30
2023-02-09T13:23:35.208Z,28.73
2023-02-09T13:26:18.851Z,27.33
2023-02-09T13:28:46.779Z,26.17
2023-02-09T13:31:27.061Z,20.83
2023-02-09T13:34:00.997Z,28.13
2023-02-09T13:36:36.732Z,26.70
2023-02-09T13:39:08.447Z,27.33
2023-02-09T13:41:40.541Z,25.87
2023-02-09T13:44:21.421Z,25.50
2023-02-09T13:46:54.739Z,28.27
2023-02-09T13:49:24.757Z,29.40
2023-02-09T13:52:14.157Z,26.30
2023-02-09T13:54:43.318Z,25.93
2023-02-09T13:57:23.694Z,27.13
2023-02-09T13:59:51.725Z,26.47
2023-02-09T14:02:27.050Z,26.03
2023-02-09T14:04:58.386Z,24.47
2023-02-09T14:07:30.094Z,27.70
2023-02-09T14:10:02.741Z,26.43
2023-02-09T14:12:56.571Z,23.63
2023-02-09T14:15:46.575Z,25.20
2023-02-09T14:18:24.718Z,22.13
2023-02-09T14:21:16.534Z,25.47
2023-02-09T14:23:46.692Z,27.40
2023-02-09T14:26:25.255Z,28.37
2023-02-09T14:29:05.151Z,29.63
2023-02-09T14:31:36.277Z,25.53
2023-02-09T14:34:04.123Z,23.33
2023-02-09T14:36:34.045Z,21.77
2023-02-09T14:39:13.051Z,23.97
2023-02-09T14:41:41.079Z,20.47
2023-02-09T14:44:22.387Z,22.30
2023-02-09T14:46:52.228Z,25.13
2023-02-09T14:49:21.060Z,26.33
2023-02-09T14:51:54.488Z,24.47
2023-02-09T14:54:26.256Z,26.90
2023-02-09T14:56:57.873Z,22.47
2023-02-09T14:59:28.366Z,24.53
2023-02-09T15:01:56.509Z,26.97
2023-02-09T15:04:24.426Z,25.37
2023-02-09T15:07:01.877Z,27.20
2023-02-09T15:09:35.934Z,24.20
2023-02-09T15:12:07.180Z,27.37
2023-02-09T15:14:42.589Z,24.83
2023-02-09T15:17:16.003Z,19.33
2023-02-09T15:19:44.206Z,22.87
2023-02-09T15:22:16.099Z,23.53
2023-02-09T15:24:44.770Z,22.00
2023-02-09T15:27:22.519Z,25.00
2023-02-09T15:29:51.788Z,20.03
2023-02-09T15:32:21.711Z,21.40
2023-02-09T15:34:49.788Z,23.97
2023-02-09T15:37:22.679Z,26.07
2023-02-09T15:39:52.639Z,19.87
2023-02-09T15:42:38.663Z,23.83
2023-02-09T15:45:34.063Z,23.27
2023-02-09T15:48:02.016Z,21.97
2023-02-09T15:50:30.956Z,20.10
2023-02-09T15:52:59.296Z,21.20
2023-02-09T15:55:28.180Z,20.93
2023-02-09T15:57:56.753Z,22.83
2023-02-09T16:00:29.741Z,22.37
2023-02-09T16:03:00.316Z,22.57
2023-02-09T16:05:30.111Z,18.03
2023-02-09T16:07:59.715Z,17.10
2023-02-09T16:10:29.665Z,19.40
2023-02-09T16:12:57.767Z,23.20
2023-02-09T16:15:28.368Z,19.10
2023-02-09T16:17:56.105Z,21.57
2023-02-09T16:20:25.999Z,20.67
2023-02-09T16:23:11.844Z,18.60
2023-02-09T16:25:48.325Z,26.00
2023-02-09T16:28:19.498Z,22.10
2023-02-09T16:30:52.459Z,21.23
2023-02-09T16:33:21.060Z,24.27
2023-02-09T16:35:53.306Z,21.80
2023-02-09T16:38:23.204Z,23.70
2023-02-09T16:40:51.308Z,21.90
2023-02-09T16:43:19.413Z,23.17
2023-02-09T16:46:02.465Z,22.37
2023-02-09T16:48:34.561Z,28.93
2023-02-09T16:51:02.923Z,24.43
2023-02-09T16:53:33.712Z,24.93
2023-02-09T16:56:02.079Z,24.43
2023-02-09T16:58:29.935Z,24.60
2023-02-09T17:00:59.204Z,31.17
2023-02-09T17:03:33.608Z,25.50
2023-02-09T17:06:02.282Z,24.83
2023-02-09T17:08:32.929Z,27.00
2023-02-09T17:11:01.849Z,26.57
2023-02-09T17:13:32.199Z,25.27
2023-02-09T17:16:03.958Z,26.67
2023-02-09T17:18:34.624Z,25.30
2023-02-09T17:21:04.707Z,23.40
2023-02-09T17:23:32.569Z,19.57
2023-02-09T17:26:00.549Z,18.50
2023-02-09T17:28:29.083Z,24.07
2023-02-09T17:30:58.899Z,24.10
2023-02-09T17:33:30.125Z,25.00
2023-02-09T17:36:24.206Z,25.47
2023-02-09T17:38:47.032Z,27.53
2023-02-09T17:41:16.803Z,22.57
2023-02-09T17:43:44.850Z,26.30
2023-02-09T17:46:13.241Z,24.13
2023-02-09T17:48:42.336Z,27.63
2023-02-09T17:51:19.402Z,19.90
2023-02-09T17:53:49.314Z,27.20
2023-02-09T17:56:17.236Z,30.57
2023-02-09T17:58:45.307Z,29.07
2023-02-09T18:01:25.340Z,28.27
2023-02-09T18:03:55.958Z,28.03
2023-02-09T18:06:29.905Z,28.77
2023-02-09T18:08:57.643Z,28.97
2023-02-09T18:11:40.887Z,29.23
2023-02-09T18:14:12.004Z,23.13
2023-02-09T18:16:41.228Z,28.40
2023-02-09T18:19:11.116Z,25.13
2023-02-09T18:21:39.442Z,29.80
2023-02-09T18:24:08.010Z,27.67
2023-02-09T18:26:35.723Z,25.73
2023-02-09T18:29:03.495Z,27.37
2023-02-09T18:31:31.493Z,38.17
2023-02-09T18:33:59.372Z,34.03
2023-02-09T18:36:28.638Z,30.57
2023-02-09T18:38:56.604Z,26.43
2023-02-09T18:41:24.683Z,27.07
2023-02-09T18:43:54.261Z,23.70
2023-02-09T18:46:24.513Z,32.27
2023-02-09T18:48:52.518Z,24.10
2023-02-09T18:51:20.448Z,32.27
2023-02-09T18:53:50.199Z,30.83
2023-02-09T18:56:20.111Z,28.00
2023-02-09T18:58:48.795Z,25.73
2023-02-09T19:01:19.638Z,24.90
2023-02-09T19:03:50.518Z,28.70
2023-02-09T19:06:21.881Z,31.60
2023-02-09T19:08:51.546Z,30.33
2023-02-09T19:11:30.039Z,26.17
2023-02-09T19:14:15.687Z,30.47
2023-02-09T19:16:43.562Z,25.80
2023-02-09T19:19:12.471Z,26.43
2023-02-09T19:21:40.418Z,20.73
2023-02-09T19:24:09.562Z,29.63
2023-02-09T19:26:37.423Z,27.70
2023-02-09T19:29:07.508Z,24.97
2023-02-09T19:31:38.247Z,26.27
2023-02-09T19:34:06.141Z,26.43
2023-02-09T19:36:34.169Z,24.40
2023-02-09T19:39:02.362Z,24.23
2023-02-09T19:41:31.564Z,22.93
2023-02-09T19:43:59.887Z,27.27
2023-02-09T19:46:29.965Z,28.33
2023-02-09T19:48:58.320Z,35.63
2023-02-09T19:51:26.418Z,31.20
2023-02-09T19:53:54.289Z,31.73
2023-02-09T19:56:23.449Z,27.87
2023-02-09T19:58:52.906Z,23.90
2023-02-09T20:01:21.465Z,29.43
2023-02-09T20:03:49.748Z,30.13
2023-02-09T20:06:17.918Z,27.07
2023-02-09T20:08:47.692Z,27.30
2023-02-09T20:11:18.576Z,24.03
2023-02-09T20:13:47.004Z,30.83
2023-02-09T20:16:21.411Z,23.40
2023-02-09T20:18:49.745Z,25.43
2023-02-09T20:21:19.418Z,23.93
2023-02-09T20:23:47.989Z,21.00
2023-02-09T20:26:18.846Z,25.63
2023-02-09T20:28:49.034Z,25.43
2023-02-09T20:31:20.667Z,18.73
2023-02-09T20:33:48.631Z,26.83
2023-02-09T20:36:16.765Z,27.67
2023-02-09T20:38:44.587Z,25.57
2023-02-09T20:41:17.512Z,26.80
2023-02-09T20:44:03.091Z,26.07
2023-02-09T20:46:56.690Z,22.77
2023-02-09T20:49:29.479Z,26.03
2023-02-09T20:51:57.656Z,25.07
2023-02-09T20:54:25.850Z,29.43
2023-02-09T20:56:53.684Z,25.87
2023-02-09T20:59:21.433Z,29.30
2023-02-09T21:01:50.874Z,23.90
2023-02-09T21:04:19.066Z,24.13
2023-02-09T21:06:46.869Z,24.03
2023-02-09T21:09:16.376Z,24.50
2023-02-09T21:11:44.129Z,20.23
2023-02-09T21:14:21.934Z,22.13
2023-02-09T21:16:57.558Z,28.10
2023-02-09T21:19:25.910Z,24.33
2023-02-09T21:21:53.835Z,28.83
2023-02-09T21:24:21.731Z,30.67
2023-02-09T21:26:49.554Z,34.77
2023-02-09T21:29:17.397Z,35.83
2023-02-09T21:31:45.708Z,34.93
2023-02-09T21:34:16.406Z,31.70
2023-02-09T21:36:44.797Z,28.87
2023-02-09T21:39:15.070Z,28.07
2023-02-09T21:42:00.326Z,33.60
2023-02-09T21:44:28.116Z,30.27
2023-02-09T21:46:55.948Z,29.97
2023-02-09T21:49:25.127Z,27.97
2023-02-09T21:51:52.952Z,27.23
2023-02-09T21:54:20.743Z,28.10
2023-02-09T21:56:51.035Z,28.27
2023-02-09T21:59:21.595Z,30.73
2023-02-09T22:01:49.349Z,32.67
2023-02-09T22:04:17.191Z,28.40
2023-02-09T22:06:48.673Z,33.40
2023-02-09T22:09:16.745Z,32.37
2023-02-09T22:11:44.513Z,29.57
2023-02-09T22:14:12.525Z,27.43
2023-02-09T22:16:40.315Z,27.50
2023-02-09T22:19:08.144Z,30.67
2023-02-09T22:21:35.930Z,28.30
2023-02-09T22:24:05.680Z,30.03
2023-02-09T22:26:33.528Z,23.53
2023-02-09T22:29:03.564Z,29.33
2023-02-09T22:31:31.386Z,27.53
2023-02-09T22:33:59.184Z,25.20
2023-02-09T22:36:27.141Z,24.60
2023-02-09T22:38:54.878Z,26.53
2023-02-09T22:41:26.102Z,26.10
2023-02-09T22:43:55.982Z,30.07
2023-02-09T22:46:25.756Z,25.80
2023-02-09T22:48:54.604Z,24.90
2023-02-09T22:51:24.014Z,27.00
2023-02-09T22:53:52.153Z,30.27
2023-02-09T22:56:19.949Z,32.50
2023-02-09T22:58:49.402Z,26.93
2023-02-09T23:01:17.721Z,28.77
2023-02-09T23:03:45.509Z,26.80
2023-02-09T23:06:17.085Z,30.53
2023-02-09T23:08:47.954Z,30.73
2023-02-09T23:11:18.010Z,28.53
2023-02-09T23:13:48.062Z,27.27
2023-02-09T23:16:20.679Z,24.80
2023-02-09T23:18:50.120Z,23.63
2023-02-09T23:21:18.829Z,27.60
2023-02-09T23:23:47.313Z,24.00
2023-02-09T23:26:17.226Z,27.30
2023-02-09T23:28:45.431Z,25.63
2023-02-09T23:31:15.304Z,25.60
2023-02-09T23:33:45.296Z,25.57
2023-02-09T23:36:16.484Z,27.87
2023-02-09T23:38:45.424Z,29.67
2023-02-09T23:41:17.281Z,25.60
2023-02-09T23:43:45.190Z,28.83
2023-02-09T23:46:15.138Z,25.27
2023-02-09T23:48:44.760Z,26.67
2023-02-09T23:51:15.176Z,23.33
2023-02-09T23:53:45.498Z,27.40
2023-02-09T23:56:14.328Z,29.57
2023-02-09T23:58:44.816Z,29.27
